SBGL/GIG METAR and TAF weather

Enter ICAO airport designator
Station Type Date Time Source
SBGL METAR 2020/08/15 16:00 UTC NOAA

SBGL 151600Z 25028KT CAVOK 30/18 Q1011


Station Type Date Time Source
SBGL Decoded METAR 2020/08/15 16:00 UTC NOAA

Galeao, Brazil (SBGL) 22-49S 043-15W 42M
Aug 15, 2020 - 12:00 PM EDT / 2020.08.15 1600 UTC
Wind: from the WSW (250 degrees) at 32 MPH (28 KT):0
Visibility: greater than 7 mile(s):0
Temperature: 86 F (30 C)
Dew Point: 64 F (18 C)
Relative Humidity: 48%
Pressure (altimeter): 29.85 in. Hg (1011 hPa)
ob: SBGL 151600Z 25028KT CAVOK 30/18 Q1011
cycle: 16

Station Type Date Time Source
SBGL TAF 2020/08/15 18:57 UTC NOAA

TAF TAF SBGL 151500Z 1518/1624 24018G30KT 9999 FEW035 TX33/1518Z TN19/1609Z
BECMG 1518/1520 14009KT CAVOK
BECMG 1601/1603 08005KT
BECMG 1613/1615 05009KT
BECMG 1617/1619 13009KT 9999 FEW035
BECMG 1620/1622 14005KT CAVOK
RMK PDL

Example: see airport list